Terminal Aerodrome Forecast
Issued by NWS Omaha/Valley, NE

Home | Current Version | Previous Version | Graphics & Text | Print | Product List | Glossary On
Versions: 1 2 3 4 5 6 7 8 9 10 11 12 13 14 15 16 17 18 19 20 21 22 23 24 25 26 27 28 29 30 31 32 33 34 35 36
189
FTUS43 KOAX 281208 AAA
TAFOFK
TAF AMD
KOFK 281208Z 2812/2912 25007KT P6SM BKN035
      TEMPO 2812/2816 BKN010
     FM281900 30010KT P6SM OVC050
     FM290200 30005KT P6SM OVC100
     FM290300 29003KT P6SM SCT250=

USA.gov is the U.S. government's official web portal to all federal, state and local government web resources and services.